Time;durP1;ratioP1;P1;durP2;ratioP2;P2;SDS_P1;SDS_P2;PMS_P1;PMS_P2;Temp;Humidity;BMP_temperature;BMP_pressure;BME280_temperature;BME280_humidity;BME280_pressure;Samples;Min_cycle;Max_cycle;Signal;HPM_P1;HPM_P2
2021/12/19 00:01:53;;;;;;;17.88;7.88;;;;;;;7.06;97.42;103405.22;5012459;28;20062;-73
2021/12/19 00:04:29;;;;;;;17.45;7.45;;;;;;;7.09;97.36;103405.16;5020255;28;20038;-73
2021/12/19 00:09:42;;;;;;;13.35;6.82;;;;;;;7.06;97.02;103402.63;4996856;28;20057;-73
2021/12/19 00:12:08;;;;;;;15.13;6.20;;;;;;;7.11;97.31;103392.91;4998885;28;20049;-72
2021/12/19 00:14:35;;;;;;;9.60;5.28;;;;;;;7.10;96.70;103391.19;5005116;28;20053;-74
2021/12/19 00:17:02;;;;;;;11.65;6.50;;;;;;;7.12;96.49;103385.94;4993522;28;20071;-74
2021/12/19 00:19:30;;;;;;;16.00;7.22;;;;;;;7.09;96.02;103376.41;4996307;28;20095;-74
2021/12/19 00:21:57;;;;;;;22.92;7.18;;;;;;;7.08;96.22;103382.53;4998329;28;20077;-70
2021/12/19 00:24:24;;;;;;;15.80;7.43;;;;;;;7.04;96.62;103380.03;4996864;28;20126;-74
2021/12/19 00:26:51;;;;;;;32.40;8.50;;;;;;;7.04;96.81;103380.03;4998179;28;20064;-71
2021/12/19 00:29:18;;;;;;;16.55;6.75;;;;;;;7.09;97.14;103380.75;4995690;28;20030;-74
2021/12/19 00:31:46;;;;;;;17.73;8.32;;;;;;;7.08;96.79;103384.28;4993895;28;20072;-73
2021/12/19 00:34:13;;;;;;;15.75;6.32;;;;;;;7.12;96.98;103373.72;5002764;28;20116;-73
2021/12/19 00:36:43;;;;;;;16.08;6.80;;;;;;;7.12;96.53;103373.72;4993066;28;20045;-71
2021/12/19 00:39:10;;;;;;;11.10;5.93;;;;;;;7.10;96.43;103380.72;5000593;28;20045;-73
2021/12/19 00:41:36;;;;;;;15.38;6.35;;;;;;;7.11;95.91;103385.06;4994642;28;20046;-73
2021/12/19 00:44:09;;;;;;;9.88;5.65;;;;;;;7.15;95.88;103381.50;4995069;28;20109;-73
2021/12/19 00:46:43;;;;;;;9.20;4.95;;;;;;;7.11;96.29;103385.06;4993712;28;20045;-72
2021/12/19 00:49:11;;;;;;;13.55;6.20;;;;;;;7.11;96.61;103378.97;4995981;28;20053;-74
2021/12/19 00:51:38;;;;;;;13.73;5.20;;;;;;;7.09;96.55;103376.41;4992318;28;20042;-74
2021/12/19 00:54:09;;;;;;;10.43;6.20;;;;;;;7.06;96.56;103379.09;4997840;28;20050;-72
2021/12/19 00:56:38;;;;;;;12.75;6.47;;;;;;;7.08;96.42;103374.69;4996958;28;20053;-72
2021/12/19 00:59:05;;;;;;;16.73;6.93;;;;;;;7.10;96.65;103375.50;4997848;28;20069;-72
2021/12/19 01:01:33;;;;;;;11.32;5.10;;;;;;;7.07;96.62;103366.88;5007291;28;20164;-71
2021/12/19 01:04:00;;;;;;;8.70;5.13;;;;;;;7.09;96.72;103362.47;4991870;28;20045;-70
2021/12/19 01:06:28;;;;;;;10.05;5.10;;;;;;;7.11;96.86;103365.91;4995410;28;20049;-72
2021/12/19 01:08:55;;;;;;;12.18;5.05;;;;;;;7.10;96.43;103364.19;4997277;28;20050;-75
2021/12/19 01:11:24;;;;;;;12.07;6.72;;;;;;;7.12;96.42;103370.25;4995465;28;20128;-72
2021/12/19 01:13:51;;;;;;;6.60;4.43;;;;;;;7.14;96.66;103366.69;4993758;28;20044;-72
2021/12/19 01:16:19;;;;;;;10.68;5.60;;;;;;;7.10;96.78;103364.19;4998274;28;20038;-72
2021/12/19 01:18:46;;;;;;;8.68;4.45;;;;;;;7.11;96.59;103358.91;4997090;28;20041;-73
2021/12/19 01:21:13;;;;;;;10.02;5.97;;;;;;;7.10;96.82;103357.19;4997673;28;20034;-72
2021/12/19 01:23:39;;;;;;;9.00;4.93;;;;;;;7.11;96.79;103358.91;5001072;28;20134;-72
2021/12/19 01:26:06;;;;;;;10.93;5.53;;;;;;;7.06;96.47;103358.19;4981816;28;20155;-73
2021/12/19 01:28:35;;;;;;;10.23;5.10;;;;;;;7.07;96.90;103349.44;4997026;28;20343;-73
2021/12/19 01:31:01;;;;;;;8.85;4.82;;;;;;;7.04;96.98;103348.66;4998054;28;20042;-72
2021/12/19 01:33:28;;;;;;;8.73;5.05;;;;;;;7.03;97.01;103342.56;5003180;28;20046;-72
2021/12/19 01:35:55;;;;;;;5.63;3.80;;;;;;;7.08;96.76;103340.72;4995368;28;20050;-72
2021/12/19 01:38:22;;;;;;;10.95;4.90;;;;;;;7.08;96.74;103340.72;4994147;28;20050;-74
2021/12/19 01:40:49;;;;;;;10.40;5.25;;;;;;;7.08;96.61;103339.84;4992814;28;20038;-72
2021/12/19 01:43:20;;;;;;;5.43;3.60;;;;;;;7.02;96.70;103335.63;4999103;28;20049;-73
2021/12/19 01:45:48;;;;;;;9.13;4.47;;;;;;;7.00;96.85;103331.31;4980726;28;20037;-72
2021/12/19 01:48:14;;;;;;;3.22;2.35;;;;;;;7.04;97.00;103328.59;4996900;28;20128;-71
2021/12/19 01:50:42;;;;;;;8.68;4.80;;;;;;;7.03;97.05;103326.88;5010089;28;20108;-72
2021/12/19 01:53:11;;;;;;;13.75;5.53;;;;;;;7.03;96.95;103323.41;4997911;28;20048;-74
2021/12/19 01:55:39;;;;;;;11.68;5.88;;;;;;;6.99;97.43;103327.00;4987571;28;20693;-71
2021/12/19 01:58:06;;;;;;;9.98;5.00;;;;;;;7.02;97.50;103327.78;4995284;28;20129;-72
2021/12/19 02:00:34;;;;;;;12.20;6.03;;;;;;;7.00;97.46;103326.09;4999947;28;20052;-72
2021/12/19 02:03:03;;;;;;;11.85;6.68;;;;;;;7.03;97.09;103324.28;4992464;28;20068;-72
2021/12/19 02:05:30;;;;;;;12.10;6.50;;;;;;;7.02;97.57;103325.16;4998710;28;20823;-74
2021/12/19 02:07:58;;;;;;;12.15;5.95;;;;;;;6.99;98.13;103317.41;4991361;28;20062;-74
2021/12/19 02:10:27;;;;;;;12.15;7.10;;;;;;;6.99;98.08;103320.03;4994214;28;20053;-73
2021/12/19 02:12:54;;;;;;;11.52;4.78;;;;;;;6.98;98.33;103315.69;4995883;28;20053;-73
2021/12/19 02:15:23;;;;;;;12.60;6.00;;;;;;;6.97;98.03;103321.81;4996791;28;20046;-71
2021/12/19 02:17:52;;;;;;;14.48;6.03;;;;;;;6.93;98.28;103317.56;4995060;28;20137;-74
2021/12/19 02:20:21;;;;;;;11.85;4.65;;;;;;;6.94;98.57;103318.41;4996161;28;20048;-72
2021/12/19 02:22:48;;;;;;;9.27;4.18;;;;;;;6.93;98.57;103314.94;4983030;28;20042;-71
2021/12/19 02:25:15;;;;;;;8.35;4.63;;;;;;;6.96;98.26;103314.84;4993832;28;20046;-73
2021/12/19 02:27:42;;;;;;;16.58;5.80;;;;;;;6.94;98.47;103308.81;4999980;28;20087;-73
2021/12/19 02:30:11;;;;;;;7.63;4.57;;;;;;;6.95;98.66;103307.06;4995972;28;20049;-72
2021/12/19 02:32:40;;;;;;;10.93;5.05;;;;;;;6.93;98.74;103308.84;4988869;28;20077;-74
2021/12/19 02:35:10;;;;;;;10.02;4.85;;;;;;;6.88;98.77;103298.50;4998947;28;20065;-74
2021/12/19 02:38:08;;;;;;;11.63;5.75;;;;;;;6.91;99.00;103305.41;5016754;28;20038;-73
2021/12/19 02:48:09;;;;;;;11.63;4.55;;;;;;;6.90;99.10;103299.34;5016716;28;20038;-74
2021/12/19 02:49:04;;;;;;;16.33;6.72;;;;;;;6.87;99.09;103286.34;4996126;28;20045;-73
2021/12/19 02:51:34;;;;;;;12.60;5.53;;;;;;;6.85;99.71;103285.53;4997930;28;20097;-73
2021/12/19 02:54:04;;;;;;;13.15;6.15;;;;;;;6.89;99.28;103284.56;5000963;28;20049;-73
2021/12/19 02:56:31;;;;;;;14.05;5.82;;;;;;;6.85;99.41;103279.44;4994700;28;20038;-74
2021/12/19 02:58:58;;;;;;;12.00;5.60;;;;;;;6.85;99.50;103280.31;5000620;28;20050;-72
2021/12/19 03:01:25;;;;;;;15.68;5.45;;;;;;;6.86;99.68;103276.78;5002392;28;20060;-73
2021/12/19 03:03:53;;;;;;;12.70;5.95;;;;;;;6.82;99.68;103275.16;5020478;22;20062;-72
2021/12/19 03:06:21;;;;;;;15.93;6.45;;;;;;;6.79;99.68;103275.22;5021320;28;20037;-72
2021/12/19 03:08:50;;;;;;;15.82;5.60;;;;;;;6.81;99.76;103276.03;5018895;28;20050;-71
2021/12/19 03:19:33;;;;;;;20.55;8.27;;;;;;;6.83;99.97;103271.66;5016613;28;20129;-72
2021/12/19 03:22:00;;;;;;;15.85;6.32;;;;;;;6.78;99.97;103265.66;5022416;28;20459;-73
2021/12/19 03:24:27;;;;;;;16.88;5.28;;;;;;;6.74;99.67;103264.03;5016809;28;20043;-74
2021/12/19 03:26:57;;;;;;;17.85;5.90;;;;;;;6.73;99.80;103259.69;5025195;28;20045;-72
2021/12/19 03:29:24;;;;;;;10.52;5.38;;;;;;;6.77;99.70;103266.53;5010195;28;20032;-75
2021/12/19 03:31:51;;;;;;;18.30;6.78;;;;;;;6.74;99.66;103261.41;5017431;28;20037;-73
2021/12/19 03:34:20;;;;;;;26.75;6.25;;;;;;;6.77;99.74;103261.31;5012600;28;20038;-73
2021/12/19 03:36:48;;;;;;;17.17;7.60;;;;;;;6.74;99.65;103258.78;5015348;28;20053;-71
2021/12/19 03:39:26;;;;;;;15.75;7.10;;;;;;;6.72;99.76;103257.13;5021767;28;20052;-73
2021/12/19 03:41:56;;;;;;;9.63;4.78;;;;;;;6.72;99.71;103255.34;5019519;28;20046;-73
2021/12/19 03:44:23;;;;;;;12.57;5.55;;;;;;;6.67;99.77;103254.63;5015340;28;20137;-72
2021/12/19 03:46:50;;;;;;;12.90;6.28;;;;;;;6.63;99.77;103241.66;5022046;28;20033;-72
2021/12/19 03:49:19;;;;;;;14.15;5.70;;;;;;;6.64;100.00;103251.22;5019485;28;20037;-74
2021/12/19 03:51:45;;;;;;;22.17;8.55;;;;;;;6.61;99.88;103252.13;5015056;28;20052;-73
2021/12/19 03:54:14;;;;;;;20.92;5.95;;;;;;;6.60;99.72;103257.38;5020614;28;20448;-72
2021/12/19 03:56:41;;;;;;;25.60;7.88;;;;;;;6.62;100.00;103251.22;5012901;28;20033;-73
2021/12/19 03:59:09;;;;;;;9.02;5.32;;;;;;;6.63;100.00;103252.94;5016856;28;20050;-72
2021/12/19 04:01:36;;;;;;;22.23;7.45;;;;;;;6.60;100.00;103250.44;5029789;28;20068;-74
2021/12/19 04:04:03;;;;;;;27.88;7.93;;;;;;;6.60;100.00;103244.34;5002462;28;20135;-71
2021/12/19 04:06:31;;;;;;;16.73;5.72;;;;;;;6.56;100.00;103243.53;5022208;28;20040;-74
2021/12/19 04:08:58;;;;;;;30.85;8.93;;;;;;;6.59;100.00;103233.03;5018155;28;20040;-73
2021/12/19 04:11:25;;;;;;;16.42;7.07;;;;;;;6.59;100.00;103233.03;4993576;28;20060;-71
2021/12/19 04:13:52;;;;;;;24.17;6.07;;;;;;;6.51;100.00;103231.50;5014146;28;20045;-72
2021/12/19 04:16:20;;;;;;;19.67;6.18;;;;;;;6.45;100.00;103211.59;5017430;28;20041;-72
2021/12/19 04:18:47;;;;;;;26.05;6.47;;;;;;;6.43;99.78;103218.63;5013264;28;20049;-72
2021/12/19 04:21:14;;;;;;;14.60;5.47;;;;;;;6.44;99.68;103215.09;5017527;28;20040;-74
2021/12/19 04:23:40;;;;;;;14.75;5.88;;;;;;;6.40;99.86;103210.84;5014796;28;20053;-72
2021/12/19 04:26:07;;;;;;;20.13;6.72;;;;;;;6.39;99.55;103205.69;5017547;28;20041;-71
2021/12/19 04:28:36;;;;;;;14.73;4.88;;;;;;;6.42;99.82;103206.47;5014328;28;20037;-71
2021/12/19 04:31:04;;;;;;;20.85;8.18;;;;;;;6.40;99.86;103197.81;5016831;28;20115;-73
2021/12/19 04:33:36;;;;;;;14.43;6.50;;;;;;;6.36;99.49;103186.63;5027593;28;20049;-73
2021/12/19 04:36:07;;;;;;;15.65;6.45;;;;;;;6.33;99.66;103184.91;5021570;28;20037;-71
2021/12/19 04:53:02;;;;;;;13.15;5.53;;;;;;;6.04;98.87;103189.94;4961542;28;20055;-72
2021/12/19 04:58:50;;;;;;;12.05;3.17;;;;;;;5.98;98.60;103186.59;5013037;28;20057;-72
2021/12/19 05:04:09;;;;;;;7.80;3.55;;;;;;;5.95;98.46;103191.91;4994497;28;21094;-73
2021/12/19 05:14:01;;;;;;;5.93;2.33;;;;;;;5.96;98.17;103191.84;5000067;28;20065;-73
2021/12/19 05:15:12;;;;;;;5.30;3.00;;;;;;;5.94;98.29;103201.47;5000518;28;20358;-71
2021/12/19 05:17:39;;;;;;;4.93;2.38;;;;;;;5.89;98.46;103192.00;5021961;28;20041;-72
2021/12/19 05:20:14;;;;;;;10.38;2.75;;;;;;;5.92;98.06;103191.97;5018817;28;20069;-72
2021/12/19 05:22:47;;;;;;;8.00;1.85;;;;;;;5.91;98.69;103190.22;5019871;28;20091;-72
2021/12/19 05:25:15;;;;;;;2.95;1.80;;;;;;;5.89;98.34;103184.19;5020750;28;20049;-73
2021/12/19 05:27:43;;;;;;;10.73;3.72;;;;;;;5.92;98.04;103189.34;5017011;28;20060;-72
2021/12/19 05:30:12;;;;;;;3.88;2.00;;;;;;;5.93;98.19;103189.31;5015896;28;20045;-72
2021/12/19 05:32:39;;;;;;;15.25;2.50;;;;;;;5.92;98.08;103187.59;5015538;28;20041;-72
2021/12/19 05:35:07;;;;;;;9.43;3.00;;;;;;;5.92;98.36;103194.56;5011599;28;20131;-73
2021/12/19 05:45:49;;;;;;;11.88;4.45;;;;;;;5.98;97.80;103171.81;5013720;28;20037;-73
2021/12/19 05:48:19;;;;;;;46.50;4.65;;;;;;;6.00;98.25;103174.38;5027469;28;20496;-73
2021/12/19 05:50:46;;;;;;;13.25;4.78;;;;;;;5.95;98.57;103168.44;5013784;28;20470;-72
2021/12/19 05:53:13;;;;;;;15.00;6.53;;;;;;;5.99;98.45;103167.44;5017282;28;20460;-72
2021/12/19 05:55:42;;;;;;;14.40;5.80;;;;;;;5.96;98.91;103167.50;5013869;28;20073;-73
2021/12/19 05:58:09;;;;;;;13.48;5.22;;;;;;;6.00;99.03;103170.00;5023642;28;20041;-73
2021/12/19 06:00:37;;;;;;;12.00;5.18;;;;;;;6.01;99.09;103166.53;5011516;28;20033;-71
2021/12/19 06:03:04;;;;;;;19.63;7.30;;;;;;;6.02;98.66;103168.25;5016195;28;20141;-73
2021/12/19 06:05:31;;;;;;;16.65;6.10;;;;;;;6.03;98.87;103163.91;5013169;28;20061;-73
2021/12/19 06:07:58;;;;;;;13.63;6.80;;;;;;;6.02;98.93;103164.78;5013693;28;20049;-73
2021/12/19 06:10:28;;;;;;;16.13;5.90;;;;;;;6.04;99.03;103165.59;5021946;28;20125;-71
2021/12/19 06:12:57;;;;;;;16.45;7.07;;;;;;;6.04;99.21;103152.53;4997446;28;20495;-74
2021/12/19 06:15:24;;;;;;;16.13;5.30;;;;;;;6.03;99.24;103154.31;5019678;28;20353;-73
2021/12/19 06:17:52;;;;;;;15.38;6.00;;;;;;;6.02;99.61;103139.53;4990424;28;20053;-73
2021/12/19 06:20:19;;;;;;;11.85;5.18;;;;;;;6.09;99.48;103143.72;5001065;28;20057;-71
2021/12/19 06:22:46;;;;;;;14.45;6.97;;;;;;;6.10;99.54;103153.28;5018290;28;20128;-73
2021/12/19 06:25:13;;;;;;;10.93;6.10;;;;;;;6.08;99.47;103143.75;5003867;28;20061;-74
2021/12/19 06:27:39;;;;;;;16.48;5.60;;;;;;;6.10;99.55;103131.56;5017392;28;20386;-73
2021/12/19 06:30:09;;;;;;;14.00;4.95;;;;;;;6.13;99.41;103139.28;5021661;28;20041;-72
2021/12/19 06:32:36;;;;;;;16.55;6.50;;;;;;;6.09;99.55;103137.66;5021549;28;20037;-73
2021/12/19 06:35:07;;;;;;;6.10;3.72;;;;;;;6.10;99.80;103147.22;5019649;28;20053;-74
2021/12/19 06:37:35;;;;;;;10.82;4.75;;;;;;;6.04;99.68;103145.59;5022327;28;20091;-75
2021/12/19 06:40:03;;;;;;;11.65;3.50;;;;;;;6.08;99.55;103141.16;5016765;28;20140;-73
2021/12/19 06:42:32;;;;;;;15.07;5.47;;;;;;;6.09;99.22;103138.50;5017816;28;20339;-73
2021/12/19 06:44:59;;;;;;;13.13;4.43;;;;;;;6.00;99.39;103133.50;5020506;28;20041;-72
2021/12/19 06:47:27;;;;;;;10.00;4.07;;;;;;;5.99;99.89;103130.94;5017325;28;20057;-71
2021/12/19 06:49:54;;;;;;;8.18;3.85;;;;;;;5.98;99.53;103134.44;5019657;28;20037;-72
2021/12/19 06:52:20;;;;;;;10.40;5.05;;;;;;;5.97;99.87;103125.75;5024769;28;20045;-73
2021/12/19 06:54:47;;;;;;;8.98;3.15;;;;;;;5.94;99.80;103132.78;5021514;28;20040;-73
2021/12/19 06:57:14;;;;;;;10.60;3.83;;;;;;;5.94;99.74;103127.56;5028293;28;20084;-73
2021/12/19 06:59:41;;;;;;;8.57;2.90;;;;;;;5.91;99.82;103122.41;5020307;28;20115;-73
2021/12/19 07:02:13;;;;;;;6.15;2.55;;;;;;;5.93;99.38;103120.63;5020877;28;20041;-73
2021/12/19 07:04:41;;;;;;;6.57;3.20;;;;;;;5.89;99.65;103113.75;5010361;28;20064;-71
2021/12/19 07:07:07;;;;;;;7.60;3.00;;;;;;;5.85;99.74;103117.34;5006080;28;20046;-72
2021/12/19 07:09:34;;;;;;;6.32;3.35;;;;;;;5.88;99.45;103119.88;4999816;28;20049;-69
2021/12/19 07:12:02;;;;;;;5.80;2.38;;;;;;;5.84;99.50;103116.47;4999165;28;20050;-72
2021/12/19 07:14:29;;;;;;;5.32;2.58;;;;;;;5.89;99.70;103119.84;4989317;28;20069;-73
2021/12/19 07:16:56;;;;;;;6.60;3.05;;;;;;;5.88;99.67;103112.03;5002296;28;20108;-73
2021/12/19 07:19:22;;;;;;;11.50;3.20;;;;;;;5.87;99.81;103105.09;4998754;28;20053;-73
2021/12/19 07:21:50;;;;;;;6.95;2.97;;;;;;;5.87;99.82;103103.38;5001644;28;20138;-73
2021/12/19 07:24:17;;;;;;;20.33;5.07;;;;;;;5.84;99.59;103106.03;4999237;28;20088;-73
2021/12/19 07:26:44;;;;;;;4.88;2.58;;;;;;;5.87;99.66;103105.09;5004911;28;20061;-74
2021/12/19 07:29:10;;;;;;;3.83;1.77;;;;;;;5.86;99.75;103103.41;4999439;28;20052;-73
2021/12/19 07:31:38;;;;;;;5.07;2.63;;;;;;;5.88;99.63;103106.81;5000409;28;20046;-73
2021/12/19 07:34:05;;;;;;;4.32;2.22;;;;;;;5.85;100.00;103106.91;4984794;28;20046;-73
2021/12/19 07:36:38;;;;;;;4.55;2.50;;;;;;;5.87;100.00;103103.38;5015538;28;20133;-73
2021/12/19 07:39:10;;;;;;;17.15;1.88;;;;;;;5.90;99.63;103102.44;5013042;28;20133;-73
2021/12/19 07:41:37;;;;;;;7.32;2.25;;;;;;;5.92;99.58;103106.72;4994346;28;20056;-74
2021/12/19 07:44:04;;;;;;;5.65;2.50;;;;;;;5.94;100.00;103104.09;5007828;28;20049;-72
2021/12/19 07:46:30;;;;;;;3.15;1.35;;;;;;;5.95;99.77;103095.38;5012657;28;20053;-72
2021/12/19 07:48:57;;;;;;;5.15;2.85;;;;;;;5.93;99.77;103099.78;5024961;28;20036;-71
2021/12/19 07:51:23;;;;;;;2.38;1.98;;;;;;;5.94;99.96;103096.28;5014806;28;20488;-73
2021/12/19 07:53:50;;;;;;;3.97;2.33;;;;;;;5.94;99.89;103094.50;4987189;28;20132;-73
2021/12/19 07:56:18;;;;;;;10.05;3.10;;;;;;;5.99;100.00;103092.63;4998235;28;20046;-71
2021/12/19 07:58:44;;;;;;;6.32;2.92;;;;;;;6.01;99.92;103097.84;4995564;28;20038;-72
2021/12/19 08:01:12;;;;;;;6.15;2.55;;;;;;;6.06;99.74;103090.75;4999514;28;20089;-73
2021/12/19 08:03:39;;;;;;;11.02;3.63;;;;;;;6.11;99.80;103089.75;4983016;28;20056;-72
2021/12/19 08:06:06;;;;;;;3.58;2.00;;;;;;;6.13;99.77;103098.41;5021528;28;20045;-72
2021/12/19 08:08:33;;;;;;;7.25;3.30;;;;;;;6.10;99.47;103092.41;5021334;28;20064;-71
2021/12/19 08:13:47;;;;;;;4.38;2.53;;;;;;;6.06;99.75;103090.75;5012925;28;20049;-73
2021/12/19 08:16:14;;;;;;;7.15;2.75;;;;;;;6.10;99.64;103092.41;5015127;28;20063;-73
2021/12/19 08:18:40;;;;;;;4.95;2.05;;;;;;;6.16;99.78;103087.88;5020997;28;20040;-74
2021/12/19 08:21:07;;;;;;;7.07;3.08;;;;;;;6.17;99.62;103081.78;5017950;28;20045;-73
2021/12/19 08:23:35;;;;;;;4.13;2.90;;;;;;;6.18;99.45;103078.28;5035642;28;20049;-73
2021/12/19 08:26:01;;;;;;;3.28;2.45;;;;;;;6.20;99.35;103075.63;5018598;28;20033;-73
2021/12/19 08:28:28;;;;;;;8.38;2.28;;;;;;;6.22;99.30;103066.88;5018614;28;20120;-72
2021/12/19 08:30:56;;;;;;;7.45;2.95;;;;;;;6.24;99.21;103069.44;5019181;28;20041;-73
2021/12/19 08:33:22;;;;;;;11.05;3.20;;;;;;;6.25;99.32;103073.78;5020733;28;20045;-72
2021/12/19 08:35:49;;;;;;;3.75;2.05;;;;;;;6.25;99.23;103073.78;5016689;28;20045;-73
2021/12/19 08:38:16;;;;;;;9.60;3.35;;;;;;;6.24;99.83;103077.28;5003317;28;20040;-74
2021/12/19 08:40:44;;;;;;;7.45;2.45;;;;;;;6.27;99.35;103072.84;5001928;28;20058;-72
2021/12/19 08:43:10;;;;;;;7.00;2.28;;;;;;;6.34;99.21;103076.16;5017105;28;20041;-72
2021/12/19 08:45:37;;;;;;;9.32;2.88;;;;;;;6.37;99.41;103071.72;5002779;28;20049;-73
2021/12/19 08:48:06;;;;;;;4.97;2.35;;;;;;;6.39;99.48;103065.56;5020035;28;20049;-73
2021/12/19 08:50:33;;;;;;;10.70;3.63;;;;;;;6.42;99.15;103062.88;5002869;28;20057;-73
2021/12/19 08:52:59;;;;;;;4.22;2.42;;;;;;;6.45;99.32;103065.38;5034142;28;20068;-70
2021/12/19 08:55:27;;;;;;;5.35;2.97;;;;;;;6.44;99.47;103058.44;5036162;28;20049;-70
2021/12/19 08:57:53;;;;;;;9.05;3.08;;;;;;;6.47;99.28;103058.38;5030268;28;20052;-73
2021/12/19 09:00:20;;;;;;;5.53;2.22;;;;;;;6.47;99.18;103062.75;5010454;28;20128;-73
2021/12/19 09:02:51;;;;;;;8.88;2.60;;;;;;;6.54;99.10;103065.16;5017203;28;20052;-72
2021/12/19 09:05:19;;;;;;;7.25;2.80;;;;;;;6.56;99.02;103062.53;5018929;28;20073;-74
2021/12/19 09:07:45;;;;;;;5.07;2.47;;;;;;;6.58;99.03;103055.50;4999480;28;20045;-73
2021/12/19 09:10:13;;;;;;;12.98;3.00;;;;;;;6.65;99.00;103052.69;5015433;28;20040;-73
2021/12/19 09:12:40;;;;;;;3.65;2.17;;;;;;;6.66;98.93;103054.41;5015638;28;20042;-73
2021/12/19 09:15:08;;;;;;;4.88;1.88;;;;;;;6.64;98.68;103060.56;5004739;28;20155;-72
2021/12/19 09:17:35;;;;;;;3.72;1.83;;;;;;;6.64;98.79;103057.97;5012901;28;20048;-72
2021/12/19 09:20:01;;;;;;;6.75;2.95;;;;;;;6.69;98.77;103059.53;5006441;28;20049;-72
2021/12/19 09:22:29;;;;;;;6.80;3.30;;;;;;;6.77;98.98;103057.56;5002641;28;20053;-73
2021/12/19 09:24:56;;;;;;;6.30;2.58;;;;;;;6.84;98.91;103053.03;5011495;28;20081;-73
2021/12/19 09:27:23;;;;;;;10.55;3.70;;;;;;;6.79;98.66;103053.16;5017116;28;20081;-73
2021/12/19 09:29:49;;;;;;;10.90;2.60;;;;;;;6.80;98.52;103052.28;5014850;28;20045;-72
2021/12/19 09:32:16;;;;;;;4.32;2.33;;;;;;;6.85;98.49;103050.41;5029139;28;20099;-72
2021/12/19 09:34:43;;;;;;;11.45;3.15;;;;;;;6.91;98.25;103050.22;5014286;28;20057;-72
2021/12/19 09:37:10;;;;;;;11.23;2.80;;;;;;;6.98;98.57;103051.78;5016871;28;20068;-72
2021/12/19 09:39:38;;;;;;;8.68;3.17;;;;;;;7.07;98.47;103041.06;5021877;28;20030;-73
2021/12/19 09:42:09;;;;;;;6.28;2.45;;;;;;;7.16;97.93;103043.41;5015368;28;20041;-73
2021/12/19 09:44:38;;;;;;;3.33;1.95;;;;;;;7.14;97.13;103050.44;5017850;28;20045;-72
2021/12/19 09:47:07;;;;;;;9.18;3.70;;;;;;;7.19;97.25;103049.41;5012255;28;20072;-72
2021/12/19 09:49:35;;;;;;;7.97;3.08;;;;;;;7.23;97.21;103047.56;5015298;28;20045;-71
2021/12/19 09:52:05;;;;;;;12.40;3.80;;;;;;;7.21;97.59;103038.91;4997668;28;20055;-72
2021/12/19 09:54:32;;;;;;;8.68;2.65;;;;;;;7.22;97.31;103036.22;5015659;28;20049;-73
2021/12/19 09:57:00;;;;;;;6.78;2.92;;;;;;;7.20;97.37;103031.97;5015531;28;20101;-73
2021/12/19 09:59:26;;;;;;;10.57;3.08;;;;;;;7.26;96.71;103031.81;5012097;28;20067;-71
2021/12/19 10:01:53;;;;;;;11.25;3.00;;;;;;;7.30;97.44;103033.41;5015959;28;20041;-74
2021/12/19 10:04:38;;;;;;;14.15;4.03;;;;;;;7.33;97.59;103033.34;5014616;28;20157;-71
2021/12/19 10:07:09;;;;;;;12.25;4.55;;;;;;;7.38;97.68;103031.44;5014293;28;20045;-73
2021/12/19 10:09:38;;;;;;;5.82;3.42;;;;;;;7.39;96.64;103030.53;5014803;28;20060;-73
2021/12/19 10:12:37;;;;;;;6.68;3.45;;;;;;;7.36;96.73;103026.25;5019352;28;20038;-73
2021/12/19 10:15:13;;;;;;;10.85;3.30;;;;;;;7.38;97.08;103020.97;5028014;28;20057;-72
2021/12/19 10:17:42;;;;;;;8.35;4.90;;;;;;;7.41;97.02;103023.50;5016211;28;20029;-72
2021/12/19 10:20:10;;;;;;;10.70;3.10;;;;;;;7.38;96.99;103020.97;5027218;28;20074;-73
2021/12/19 10:22:39;;;;;;;6.43;3.35;;;;;;;7.42;97.47;103017.38;5034920;28;20060;-74
2021/12/19 10:25:18;;;;;;;10.18;3.08;;;;;;;7.37;97.96;103006.19;5039524;28;20037;-72
2021/12/19 10:27:49;;;;;;;9.85;3.50;;;;;;;7.43;97.41;103013.81;5030441;28;20041;-73
2021/12/19 10:30:22;;;;;;;3.28;2.35;;;;;;;7.47;97.79;103015.47;5013963;28;20491;-72
2021/12/19 10:32:57;;;;;;;15.35;3.53;;;;;;;7.51;97.91;103012.72;5016199;28;20143;-72
2021/12/19 10:35:30;;;;;;;5.28;2.33;;;;;;;7.53;97.49;103010.91;5013283;28;20038;-73
2021/12/19 10:37:58;;;;;;;6.03;2.58;;;;;;;7.55;97.37;103005.63;5001575;28;20052;-73
2021/12/19 10:40:25;;;;;;;17.88;4.28;;;;;;;7.62;97.57;102994.06;5012768;28;20081;-74
2021/12/19 10:42:59;;;;;;;9.20;2.67;;;;;;;7.60;97.03;102999.34;5017759;28;20041;-72
2021/12/19 10:45:30;;;;;;;7.28;2.83;;;;;;;7.62;97.05;102997.56;5020331;28;20516;-73
2021/12/19 10:48:24;;;;;;;8.35;2.95;;;;;;;7.59;97.01;102986.34;5021302;28;20442;-74
2021/12/19 10:51:00;;;;;;;7.10;3.00;;;;;;;7.71;96.68;102983.31;5024645;28;20108;-73
2021/12/19 10:53:31;;;;;;;3.40;1.75;;;;;;;7.79;95.89;102968.22;5015534;28;20037;-73
2021/12/19 10:55:59;;;;;;;3.28;1.98;;;;;;;7.82;95.15;102968.13;5020883;28;20033;-73
2021/12/19 10:58:33;;;;;;;4.88;2.60;;;;;;;7.75;95.03;102961.41;4997434;28;20050;-73
2021/12/19 11:01:14;;;;;;;4.93;2.22;;;;;;;7.84;95.06;102953.25;5015767;28;20244;-72
2021/12/19 11:04:06;;;;;;;3.45;1.77;;;;;;;7.74;94.89;102954.44;4997852;28;20099;-72
2021/12/19 11:06:38;;;;;;;5.80;2.13;;;;;;;7.83;94.60;102952.38;4994982;28;20169;-72
2021/12/19 11:09:07;;;;;;;2.65;1.60;;;;;;;7.93;95.63;102959.03;5010959;28;20100;-71
2021/12/19 11:11:50;;;;;;;2.92;1.40;;;;;;;8.03;94.53;102944.72;5000837;28;20046;-72
2021/12/19 11:14:28;;;;;;;3.35;1.70;;;;;;;8.06;94.55;102940.25;5022407;28;20100;-72
2021/12/19 11:16:56;;;;;;;3.55;1.65;;;;;;;7.95;94.64;102934.50;5024691;28;20035;-71
2021/12/19 11:19:24;;;;;;;3.65;2.30;;;;;;;7.86;93.89;102935.72;5016736;28;20049;-72
2021/12/19 11:21:50;;;;;;;2.67;1.55;;;;;;;7.84;94.99;102932.31;5022007;28;20049;-72
2021/12/19 11:24:19;;;;;;;5.13;1.45;;;;;;;7.74;95.26;102938.75;4999818;28;20104;-70
2021/12/19 11:26:50;;;;;;;4.68;2.20;;;;;;;7.62;95.18;102936.53;5019161;28;20049;-73
2021/12/19 11:29:17;;;;;;;2.05;1.35;;;;;;;7.50;95.44;102934.31;5023770;28;20037;-73
2021/12/19 11:31:47;;;;;;;0.90;0.68;;;;;;;7.45;94.86;102933.59;5028668;28;20069;-72
2021/12/19 11:34:23;;;;;;;0.80;0.50;;;;;;;7.48;95.85;102923.88;5021041;28;20047;-72
2021/12/19 11:36:57;;;;;;;3.15;1.30;;;;;;;7.42;94.45;102918.00;5017651;28;20053;-72
2021/12/19 11:39:29;;;;;;;1.27;0.77;;;;;;;7.44;93.68;102921.41;5017209;28;20038;-70
2021/12/19 11:42:10;;;;;;;1.15;0.73;;;;;;;7.54;94.28;102922.84;5013144;28;20049;-71
2021/12/19 11:44:46;;;;;;;2.60;1.13;;;;;;;7.58;92.53;102919.22;5019626;28;20040;-72
2021/12/19 11:47:17;;;;;;;1.45;0.77;;;;;;;7.65;92.59;102916.34;4999327;28;20052;-70
2021/12/19 11:49:43;;;;;;;2.22;1.23;;;;;;;7.66;92.44;102912.84;5018539;28;20045;-72
2021/12/19 11:52:26;;;;;;;1.50;0.60;;;;;;;7.65;91.62;102910.28;5001670;28;20111;-71
2021/12/19 11:55:10;;;;;;;;;;;;;;;7.56;91.63;102903.56;5019300;28;20049;-72
2021/12/19 11:57:37;;;;;;;0.40;0.32;;;;;;;7.51;91.49;102902.88;5012937;28;19925;-71
2021/12/19 12:00:28;;;;;;;0.68;0.47;;;;;;;7.52;91.56;102893.25;5020216;28;20052;-71
2021/12/19 12:03:27;;;;;;;1.70;0.77;;;;;;;7.61;92.62;102895.56;5019352;28;20049;-73
2021/12/19 12:06:31;;;;;;;1.40;0.80;;;;;;;7.61;92.66;102882.50;5031037;28;20076;-73
2021/12/19 12:09:24;;;;;;;1.42;0.80;;;;;;;7.62;92.72;102885.09;4997214;28;20057;-73
2021/12/19 12:12:35;;;;;;;2.35;1.27;;;;;;;7.63;91.97;102886.78;5019431;28;20057;-74
2021/12/19 12:15:08;;;;;;;0.77;0.50;;;;;;;7.50;91.96;102877.63;5016338;28;20069;-73
2021/12/19 12:17:46;;;;;;;1.50;0.80;;;;;;;7.51;92.77;102887.19;5019463;28;20037;-72
2021/12/19 12:20:21;;;;;;;1.52;0.90;;;;;;;7.46;93.08;102883.00;5019195;28;20053;-74
2021/12/19 12:22:57;;;;;;;1.20;0.80;;;;;;;7.44;94.19;102879.56;5018290;28;20558;-74
2021/12/19 12:25:34;;;;;;;1.52;1.15;;;;;;;7.57;94.01;102870.44;5017141;28;20072;-72
2021/12/19 12:28:06;;;;;;;6.70;1.65;;;;;;;7.57;92.47;102875.66;5020585;28;20146;-73
2021/12/19 12:30:37;;;;;;;1.08;0.70;;;;;;;7.54;92.31;102868.78;5017335;28;20056;-72
2021/12/19 12:33:05;;;;;;;10.82;0.88;;;;;;;7.53;92.19;102863.59;5017594;28;20699;-72
2021/12/19 12:35:35;;;;;;;4.95;1.42;;;;;;;7.50;92.27;102854.09;5013793;28;20037;-74